createdAt,value
2019-02-25T00:02:24.758Z,65.17
2019-02-25T00:04:54.468Z,57.37
2019-02-25T00:07:25.029Z,63.07
2019-02-25T00:09:54.410Z,65.50
2019-02-25T00:12:25.625Z,72.77
2019-02-25T00:14:54.987Z,68.80
2019-02-25T00:17:24.508Z,68.13
2019-02-25T00:19:56.030Z,61.57
2019-02-25T00:22:25.434Z,68.63
2019-02-25T00:24:56.095Z,71.67
2019-02-25T00:27:25.495Z,65.83
2019-02-25T00:29:54.961Z,65.60
2019-02-25T00:32:25.532Z,70.27
2019-02-25T00:34:54.945Z,73.17
2019-02-25T00:37:24.320Z,65.90
2019-02-25T00:39:53.672Z,69.17
2019-02-25T00:42:23.087Z,72.30
2019-02-25T00:44:52.541Z,68.40
2019-02-25T00:47:22.024Z,72.27
2019-02-25T00:49:51.529Z,70.40
2019-02-25T00:52:22.064Z,69.07
2019-02-25T00:54:51.557Z,71.13
2019-02-25T00:57:21.231Z,74.13
2019-02-25T00:59:51.741Z,71.17
2019-02-25T01:02:22.332Z,71.87
2019-02-25T01:04:51.801Z,78.50
2019-02-25T01:07:22.396Z,73.40
2019-02-25T01:09:51.774Z,76.17
2019-02-25T01:12:21.356Z,76.27
2019-02-25T01:14:52.485Z,80.43
2019-02-25T01:17:23.116Z,80.57
2019-02-25T01:19:52.770Z,77.87
2019-02-25T01:22:22.181Z,77.67
2019-02-25T01:24:51.662Z,80.00
2019-02-25T01:27:22.305Z,74.13
2019-02-25T01:29:51.768Z,83.17
2019-02-25T01:32:22.919Z,77.23
2019-02-25T01:34:52.431Z,75.50
2019-02-25T01:37:21.843Z,81.00
2019-02-25T01:39:51.360Z,78.60
2019-02-25T01:42:20.804Z,82.57
2019-02-25T01:44:50.335Z,82.23
2019-02-25T01:47:21.402Z,85.43
2019-02-25T01:49:50.889Z,85.93
2019-02-25T01:52:20.271Z,87.20
2019-02-25T01:54:49.888Z,93.10
2019-02-25T01:57:19.381Z,86.80
2019-02-25T01:59:50.378Z,91.30
2019-02-25T02:02:20.924Z,87.07
2019-02-25T02:04:50.623Z,88.93
2019-02-25T02:07:20.130Z,87.93
2019-02-25T02:09:49.599Z,90.83
2019-02-25T02:12:19.015Z,91.70
2019-02-25T02:14:48.512Z,83.87
2019-02-25T02:17:19.045Z,85.53
2019-02-25T02:19:48.489Z,95.33
2019-02-25T02:22:17.836Z,89.30
2019-02-25T02:24:47.366Z,84.23
2019-02-25T02:27:17.043Z,91.67
2019-02-25T02:29:46.536Z,84.43
2019-02-25T02:32:17.032Z,80.07
2019-02-25T02:34:46.464Z,72.17
2019-02-25T02:37:15.862Z,81.50
2019-02-25T02:39:46.945Z,75.57
2019-02-25T02:42:18.256Z,65.77
2019-02-25T02:44:56.118Z,69.93
2019-02-25T02:47:29.045Z,69.83
2019-02-25T02:49:58.848Z,67.63
2019-02-25T02:52:29.522Z,70.77
2019-02-25T02:55:00.731Z,67.87
2019-02-25T02:57:30.107Z,67.47
2019-02-25T03:00:11.240Z,63.50
2019-02-25T03:02:40.887Z,60.60
2019-02-25T03:05:12.106Z,58.33
2019-02-25T03:07:41.513Z,56.93
2019-02-25T03:10:13.455Z,59.80
2019-02-25T03:12:44.166Z,57.40
2019-02-25T03:15:16.434Z,56.80
2019-02-25T03:17:46.031Z,58.10
2019-02-25T03:20:15.678Z,53.90
2019-02-25T03:22:45.076Z,54.57
2019-02-25T03:25:17.121Z,55.37
2019-02-25T03:27:46.581Z,54.23
2019-02-25T03:30:18.498Z,56.53
2019-02-25T03:32:47.965Z,59.67
2019-02-25T03:35:17.404Z,53.90
2019-02-25T03:37:48.006Z,57.70
2019-02-25T03:40:18.842Z,54.60
2019-02-25T03:42:48.466Z,58.30
2019-02-25T03:45:18.653Z,57.20
2019-02-25T03:47:48.166Z,56.93
2019-02-25T03:50:17.629Z,57.83
2019-02-25T03:52:47.354Z,50.40
2019-02-25T03:55:37.947Z,62.37
2019-02-25T03:58:07.670Z,56.27
2019-02-25T04:00:37.392Z,59.20
2019-02-25T04:03:06.863Z,59.77
2019-02-25T04:05:36.342Z,55.57
2019-02-25T04:08:05.701Z,56.47
2019-02-25T04:10:35.261Z,53.23
2019-02-25T04:13:23.714Z,53.17
2019-02-25T04:15:53.348Z,52.67
2019-02-25T04:18:24.578Z,53.63
2019-02-25T04:20:54.160Z,51.67
2019-02-25T04:23:23.680Z,48.93
2019-02-25T04:25:54.527Z,50.47
2019-02-25T04:28:24.081Z,51.40
2019-02-25T04:30:53.544Z,50.33
2019-02-25T04:33:22.910Z,47.40
2019-02-25T04:35:52.327Z,48.80
2019-02-25T04:38:21.729Z,53.43
2019-02-25T04:40:51.171Z,56.07
2019-02-25T04:43:20.595Z,57.40
2019-02-25T04:45:50.004Z,59.67
2019-02-25T04:48:19.466Z,60.27
2019-02-25T04:50:49.031Z,55.23
2019-02-25T04:53:18.560Z,53.13
2019-02-25T04:55:47.982Z,53.57
2019-02-25T04:58:17.518Z,57.30
2019-02-25T05:00:46.989Z,54.87
2019-02-25T05:03:17.082Z,54.90
2019-02-25T05:05:46.509Z,57.73
2019-02-25T05:08:15.954Z,52.07
2019-02-25T05:10:45.423Z,45.43
2019-02-25T05:13:14.880Z,46.87
2019-02-25T05:15:44.421Z,35.73
2019-02-25T05:18:13.765Z,44.47
2019-02-25T05:20:43.400Z,46.10
2019-02-25T05:23:14.510Z,46.27
2019-02-25T05:26:03.127Z,50.13
2019-02-25T05:28:32.993Z,48.10
2019-02-25T05:31:21.536Z,49.07
2019-02-25T05:33:51.049Z,52.47
2019-02-25T05:36:20.508Z,58.13
2019-02-25T05:38:50.050Z,57.37
2019-02-25T05:41:19.502Z,53.23
2019-02-25T05:43:48.970Z,56.87
2019-02-25T05:46:19.797Z,56.67
2019-02-25T05:48:49.213Z,54.97
2019-02-25T05:51:20.324Z,57.53
2019-02-25T05:53:49.721Z,51.83
2019-02-25T05:56:19.173Z,53.17
2019-02-25T05:58:48.539Z,53.33
2019-02-25T06:01:18.113Z,57.30
2019-02-25T06:03:47.757Z,53.67
2019-02-25T06:06:17.134Z,59.50
2019-02-25T06:08:46.943Z,60.07
2019-02-25T06:11:16.311Z,58.73
2019-02-25T06:13:45.744Z,55.23
2019-02-25T06:16:15.195Z,56.03
2019-02-25T06:18:44.774Z,63.40
2019-02-25T06:21:14.144Z,59.23
2019-02-25T06:23:43.722Z,59.10
2019-02-25T06:26:14.949Z,57.23
2019-02-25T06:28:46.262Z,62.57
2019-02-25T06:31:15.923Z,65.53
2019-02-25T06:33:47.437Z,60.10
2019-02-25T06:36:16.600Z,59.43
2019-02-25T06:38:47.235Z,55.70
2019-02-25T06:41:17.881Z,62.77
2019-02-25T06:43:47.336Z,60.57
2019-02-25T06:46:16.845Z,65.00
2019-02-25T06:48:46.227Z,61.87
2019-02-25T06:51:15.741Z,61.53
2019-02-25T06:53:47.778Z,65.47
2019-02-25T06:56:17.252Z,65.07
2019-02-25T06:58:47.776Z,71.10
2019-02-25T07:01:17.242Z,64.93
2019-02-25T07:04:05.360Z,68.37
2019-02-25T07:06:47.106Z,70.57
2019-02-25T07:09:26.862Z,62.57
2019-02-25T07:12:08.088Z,63.10
2019-02-25T07:14:49.612Z,63.33
2019-02-25T07:17:40.717Z,58.83
2019-02-25T07:20:42.814Z,54.50
2019-02-25T07:23:23.393Z,57.13
2019-02-25T07:26:11.465Z,63.73
2019-02-25T07:28:52.958Z,51.20
2019-02-25T07:31:53.227Z,56.77
2019-02-25T07:34:39.885Z,53.97
2019-02-25T07:37:29.542Z,57.87
2019-02-25T07:40:20.978Z,54.97
2019-02-25T07:43:12.076Z,54.43
2019-02-25T07:46:15.516Z,50.00
2019-02-25T07:49:03.871Z,51.67
2019-02-25T07:51:38.319Z,57.27
2019-02-25T07:54:28.970Z,52.40
2019-02-25T07:57:17.359Z,51.87
2019-02-25T08:00:05.720Z,50.63
2019-02-25T08:02:51.353Z,53.47
2019-02-25T08:05:45.422Z,46.60
2019-02-25T08:08:32.813Z,50.47
2019-02-25T08:11:19.523Z,51.67
2019-02-25T08:14:11.655Z,53.77
2019-02-25T08:16:54.572Z,42.73
2019-02-25T08:19:51.988Z,46.77
2019-02-25T08:22:38.914Z,43.70
2019-02-25T08:25:38.488Z,48.63
2019-02-25T08:28:32.696Z,45.20
2019-02-25T08:31:24.127Z,46.83
2019-02-25T08:34:02.536Z,41.83
2019-02-25T08:37:22.018Z,38.87
2019-02-25T08:40:04.152Z,40.77
2019-02-25T08:42:41.375Z,41.00
2019-02-25T08:45:16.065Z,44.23
2019-02-25T08:47:51.690Z,45.00
2019-02-25T08:50:21.153Z,41.03
2019-02-25T08:52:49.864Z,44.73
2019-02-25T08:55:18.648Z,39.87
2019-02-25T08:57:48.115Z,38.90
2019-02-25T09:00:17.567Z,40.80
2019-02-25T09:02:46.977Z,37.93
2019-02-25T09:05:16.395Z,40.67
2019-02-25T09:07:45.868Z,38.77
2019-02-25T09:10:15.927Z,37.53
2019-02-25T09:12:45.343Z,38.87
2019-02-25T09:15:14.799Z,38.17
2019-02-25T09:17:45.947Z,27.67
2019-02-25T09:20:15.888Z,40.37
2019-02-25T09:22:45.246Z,37.07
2019-02-25T09:25:14.679Z,35.87
2019-02-25T09:27:44.162Z,38.63
2019-02-25T09:30:15.594Z,37.90
2019-02-25T09:32:45.532Z,42.30
2019-02-25T09:35:15.302Z,41.20
2019-02-25T09:37:44.869Z,43.37
2019-02-25T09:40:15.651Z,40.30
2019-02-25T09:42:45.008Z,35.13
2019-02-25T09:45:15.321Z,39.67
2019-02-25T09:47:46.443Z,44.63
2019-02-25T09:50:17.063Z,39.50
2019-02-25T09:52:46.575Z,38.83
2019-02-25T09:55:16.035Z,38.10
2019-02-25T09:57:46.533Z,43.33
2019-02-25T10:00:17.769Z,43.17
2019-02-25T10:02:47.521Z,41.73
2019-02-25T10:05:16.921Z,38.17
2019-02-25T10:07:47.837Z,47.17
2019-02-25T10:10:17.353Z,37.30
2019-02-25T10:12:47.433Z,42.87
2019-02-25T10:15:17.143Z,39.93
2019-02-25T10:17:46.626Z,36.13
2019-02-25T10:20:18.950Z,33.30
2019-02-25T10:22:48.415Z,41.00
2019-02-25T10:25:17.889Z,40.57
2019-02-25T10:27:49.370Z,42.80
2019-02-25T10:30:18.862Z,35.20
2019-02-25T10:32:48.394Z,42.23
2019-02-25T10:35:17.918Z,37.30
2019-02-25T10:37:47.381Z,36.83
2019-02-25T10:40:19.034Z,40.20
2019-02-25T10:42:48.570Z,39.20
2019-02-25T10:45:18.235Z,37.63
2019-02-25T10:47:49.471Z,38.60
2019-02-25T10:50:18.977Z,37.00
2019-02-25T10:52:49.524Z,44.67
2019-02-25T10:55:26.832Z,42.13
2019-02-25T10:57:57.621Z,39.53
2019-02-25T11:00:29.364Z,37.77
2019-02-25T11:02:58.859Z,35.03
2019-02-25T11:05:30.559Z,36.37
2019-02-25T11:08:02.854Z,29.03
2019-02-25T11:10:35.567Z,33.80
2019-02-25T11:13:05.439Z,37.07
2019-02-25T11:15:38.031Z,32.30
2019-02-25T11:18:08.736Z,33.33
2019-02-25T11:20:38.346Z,35.60
2019-02-25T11:23:07.820Z,26.17
2019-02-25T11:25:37.411Z,34.17
2019-02-25T11:28:07.699Z,30.53
2019-02-25T11:30:39.733Z,32.80
2019-02-25T11:33:09.390Z,30.97
2019-02-25T11:35:40.633Z,21.13
2019-02-25T11:38:09.977Z,32.27
2019-02-25T11:40:39.426Z,37.70
2019-02-25T11:43:10.677Z,40.47
2019-02-25T11:45:39.988Z,41.47
2019-02-25T11:48:09.433Z,40.17
2019-02-25T11:50:38.878Z,36.80
2019-02-25T11:53:08.374Z,47.80
2019-02-25T11:55:38.294Z,48.63
2019-02-25T11:58:07.734Z,45.83
2019-02-25T12:00:39.918Z,34.70
2019-02-25T12:03:09.604Z,45.50
2019-02-25T12:05:39.051Z,44.83
2019-02-25T12:08:08.496Z,46.00
2019-02-25T12:10:39.823Z,49.07
2019-02-25T12:13:09.464Z,46.77
2019-02-25T12:15:38.996Z,45.00
2019-02-25T12:18:09.335Z,50.75
2019-02-25T12:20:38.871Z,47.63
2019-02-25T12:23:08.240Z,46.17
2019-02-25T12:25:37.657Z,48.83
2019-02-25T12:28:07.116Z,44.27
2019-02-25T12:30:36.765Z,41.93
2019-02-25T12:33:06.631Z,50.10
2019-02-25T12:35:36.389Z,56.30
2019-02-25T12:38:05.898Z,48.93
2019-02-25T12:40:35.395Z,53.70
2019-02-25T12:43:04.840Z,33.37
2019-02-25T12:45:34.320Z,51.70
2019-02-25T12:48:03.785Z,50.27
2019-02-25T12:50:33.302Z,52.27
2019-02-25T12:53:02.787Z,57.40
2019-02-25T12:55:32.254Z,40.50
2019-02-25T12:58:01.743Z,51.90
2019-02-25T13:00:31.148Z,50.83
2019-02-25T13:03:00.634Z,54.70
2019-02-25T13:05:30.118Z,35.60
2019-02-25T13:07:59.608Z,54.60
2019-02-25T13:10:29.114Z,61.07
2019-02-25T13:12:58.574Z,55.07
2019-02-25T13:15:28.036Z,37.93
2019-02-25T13:17:57.468Z,51.87
2019-02-25T13:20:27.510Z,54.53
2019-02-25T13:22:56.967Z,63.07
2019-02-25T13:25:26.493Z,55.27
2019-02-25T13:27:56.938Z,57.20
2019-02-25T13:30:27.071Z,58.20
2019-02-25T13:32:56.551Z,55.37
2019-02-25T13:35:26.092Z,29.80
2019-02-25T13:37:55.690Z,54.57
2019-02-25T13:40:25.170Z,53.17
2019-02-25T13:42:54.862Z,51.90
2019-02-25T13:45:24.355Z,50.00
2019-02-25T13:47:53.845Z,52.83
2019-02-25T13:50:23.345Z,57.17
2019-02-25T13:52:52.804Z,33.20
2019-02-25T13:55:22.549Z,54.23
2019-02-25T13:57:53.365Z,58.27
2019-02-25T14:00:23.041Z,41.33
2019-02-25T14:02:52.685Z,47.33
2019-02-25T14:05:23.098Z,53.17
2019-02-25T14:07:52.577Z,50.33
2019-02-25T14:10:22.121Z,33.80
2019-02-25T14:12:51.649Z,49.97
2019-02-25T14:15:22.060Z,57.17
2019-02-25T14:17:51.779Z,53.20
2019-02-25T14:20:21.383Z,51.00
2019-02-25T14:22:52.259Z,51.03
2019-02-25T14:25:23.035Z,54.77
2019-02-25T14:27:54.087Z,38.43
2019-02-25T14:30:24.541Z,57.13
2019-02-25T14:32:55.788Z,51.87
2019-02-25T14:35:28.520Z,46.50
2019-02-25T14:38:04.147Z,51.17
2019-02-25T14:40:32.137Z,54.87
2019-02-25T14:43:03.310Z,49.90
2019-02-25T14:45:34.288Z,48.57
2019-02-25T14:48:05.387Z,54.53
2019-02-25T14:50:34.242Z,58.83
2019-02-25T14:53:06.105Z,41.33
2019-02-25T14:55:35.078Z,59.97
2019-02-25T14:58:07.098Z,56.17
2019-02-25T15:00:38.040Z,34.03
2019-02-25T15:03:07.446Z,66.30
2019-02-25T15:05:38.418Z,58.00
2019-02-25T15:08:07.895Z,34.47
2019-02-25T15:10:40.551Z,55.70
2019-02-25T15:13:10.619Z,58.13
2019-02-25T15:15:41.725Z,31.63
2019-02-25T15:18:11.429Z,43.37
2019-02-25T15:20:40.908Z,59.27
2019-02-25T15:23:12.503Z,60.27
2019-02-25T15:25:43.245Z,48.57
2019-02-25T15:28:16.136Z,63.23
2019-02-25T15:30:45.873Z,59.77
2019-02-25T15:33:15.405Z,31.07
2019-02-25T15:35:44.917Z,63.73
2019-02-25T15:38:14.382Z,59.67
2019-02-25T15:40:44.941Z,64.37
2019-02-25T15:43:17.696Z,67.63
2019-02-25T15:45:46.180Z,65.13
2019-02-25T15:48:17.604Z,58.03
2019-02-25T15:50:48.566Z,63.13
2019-02-25T15:53:19.271Z,72.13
2019-02-25T15:55:48.774Z,68.33
2019-02-25T15:58:19.193Z,58.47
2019-02-25T16:00:48.897Z,65.23
2019-02-25T16:03:20.678Z,63.07
2019-02-25T16:05:54.465Z,63.60
2019-02-25T16:08:23.820Z,60.57
2019-02-25T16:10:57.778Z,67.63
2019-02-25T16:13:27.221Z,68.73
2019-02-25T16:15:56.653Z,65.23
2019-02-25T16:18:27.836Z,72.57
2019-02-25T16:20:59.739Z,73.33
2019-02-25T16:23:32.150Z,70.23
2019-02-25T16:26:01.199Z,60.10
2019-02-25T16:28:33.013Z,61.70
2019-02-25T16:31:03.940Z,67.53
2019-02-25T16:33:35.228Z,72.23
2019-02-25T16:36:07.706Z,76.03
2019-02-25T16:38:38.742Z,74.00
2019-02-25T16:41:10.223Z,67.37
2019-02-25T16:43:39.772Z,74.47
2019-02-25T16:46:13.490Z,70.80
2019-02-25T16:48:40.867Z,68.33
2019-02-25T16:51:12.480Z,72.47
2019-02-25T16:53:43.155Z,65.83
2019-02-25T16:56:14.149Z,69.70
2019-02-25T16:58:43.645Z,71.70
2019-02-25T17:01:13.301Z,61.67
2019-02-25T17:03:43.830Z,61.73
2019-02-25T17:06:13.985Z,62.73
2019-02-25T17:08:43.565Z,61.73
2019-02-25T17:11:15.154Z,62.13
2019-02-25T17:13:44.074Z,51.60
2019-02-25T17:16:18.087Z,60.20
2019-02-25T17:18:46.384Z,61.23
2019-02-25T17:21:16.127Z,64.40
2019-02-25T17:23:45.593Z,59.00
2019-02-25T17:26:17.313Z,59.73
2019-02-25T17:28:46.269Z,58.67
2019-02-25T17:31:16.815Z,60.53
2019-02-25T17:33:49.055Z,57.23
2019-02-25T17:36:18.396Z,63.50
2019-02-25T17:38:50.177Z,62.10
2019-02-25T17:41:19.310Z,61.60
2019-02-25T17:43:48.817Z,64.63
2019-02-25T17:46:18.262Z,65.57
2019-02-25T17:48:47.673Z,62.30
2019-02-25T17:51:18.640Z,66.27
2019-02-25T17:53:50.222Z,68.33
2019-02-25T17:56:22.366Z,59.53
2019-02-25T17:58:51.884Z,61.77
2019-02-25T18:01:24.207Z,64.47
2019-02-25T18:03:53.920Z,59.83
2019-02-25T18:06:29.472Z,64.53
2019-02-25T18:08:57.650Z,64.13
2019-02-25T18:11:28.202Z,69.57
2019-02-25T18:13:58.415Z,68.10
2019-02-25T18:16:28.546Z,71.83
2019-02-25T18:18:58.793Z,64.37
2019-02-25T18:21:29.042Z,69.77
2019-02-25T18:23:59.423Z,75.93
2019-02-25T18:26:30.947Z,71.40
2019-02-25T18:29:01.536Z,76.87
2019-02-25T18:31:31.586Z,71.77
2019-02-25T18:34:02.234Z,75.17
2019-02-25T18:36:33.208Z,70.00
2019-02-25T18:39:03.638Z,74.07
2019-02-25T18:41:34.367Z,75.57
2019-02-25T18:44:05.403Z,79.50
2019-02-25T18:46:36.558Z,80.03
2019-02-25T18:49:07.383Z,84.57
2019-02-25T18:51:39.454Z,76.13
2019-02-25T18:54:09.683Z,83.07
2019-02-25T18:56:40.323Z,78.70
2019-02-25T18:59:15.364Z,81.67
2019-02-25T19:01:43.442Z,80.20
2019-02-25T19:04:15.232Z,83.90
2019-02-25T19:06:45.690Z,77.93
2019-02-25T19:09:23.159Z,80.33
2019-02-25T19:11:54.027Z,79.13
2019-02-25T19:14:26.514Z,80.63
2019-02-25T19:16:57.746Z,77.93
2019-02-25T19:19:31.318Z,82.23
2019-02-25T19:22:00.948Z,79.80
2019-02-25T19:24:33.248Z,88.67
2019-02-25T19:27:04.376Z,89.50
2019-02-25T19:29:35.183Z,88.80
2019-02-25T19:32:05.421Z,94.97
2019-02-25T19:34:39.226Z,97.70
2019-02-25T19:37:09.718Z,94.40
2019-02-25T19:39:41.522Z,91.73
2019-02-25T19:42:15.188Z,91.03
2019-02-25T19:44:43.999Z,89.20
2019-02-25T19:47:14.913Z,90.93
2019-02-25T19:49:46.136Z,96.20
2019-02-25T19:52:16.934Z,92.80
2019-02-25T19:54:48.832Z,97.60
2019-02-25T19:57:20.998Z,89.23
2019-02-25T19:59:52.855Z,91.87
2019-02-25T20:02:24.677Z,99.30
2019-02-25T20:04:54.689Z,99.67
2019-02-25T20:07:26.508Z,101.03
2019-02-25T20:09:57.948Z,98.40
2019-02-25T20:12:27.328Z,98.23
2019-02-25T20:14:56.807Z,98.63
2019-02-25T20:17:28.831Z,96.73
2019-02-25T20:19:57.889Z,92.30
2019-02-25T20:22:27.417Z,98.47
2019-02-25T20:24:57.802Z,95.47
2019-02-25T20:27:27.465Z,88.77
2019-02-25T20:29:58.033Z,90.17
2019-02-25T20:32:28.101Z,87.00
2019-02-25T20:34:59.363Z,86.30
2019-02-25T20:37:29.367Z,86.63
2019-02-25T20:40:00.710Z,100.13
2019-02-25T20:42:31.113Z,87.73
2019-02-25T20:45:02.759Z,80.73
2019-02-25T20:47:32.887Z,86.73
2019-02-25T20:50:03.725Z,81.13
2019-02-25T20:52:34.103Z,75.77
2019-02-25T20:55:05.863Z,83.17
2019-02-25T20:57:36.455Z,79.60
2019-02-25T21:00:10.780Z,83.77
2019-02-25T21:02:40.647Z,87.03
2019-02-25T21:05:13.908Z,86.20
2019-02-25T21:07:41.335Z,82.50
2019-02-25T21:10:12.007Z,92.33
2019-02-25T21:12:43.150Z,89.37
2019-02-25T21:15:13.902Z,84.80
2019-02-25T21:17:43.303Z,84.67
2019-02-25T21:20:13.629Z,91.90
2019-02-25T21:22:44.502Z,87.63
2019-02-25T21:25:14.022Z,89.77
2019-02-25T21:27:43.478Z,89.97
2019-02-25T21:30:14.762Z,88.03
2019-02-25T21:32:45.640Z,81.80
2019-02-25T21:35:15.516Z,85.40
2019-02-25T21:37:47.678Z,85.13
2019-02-25T21:40:17.012Z,86.73
2019-02-25T21:42:48.747Z,89.87
2019-02-25T21:45:20.059Z,89.23
2019-02-25T21:47:52.289Z,83.87
2019-02-25T21:50:19.876Z,87.23
2019-02-25T21:52:49.217Z,90.23
2019-02-25T21:55:18.789Z,92.47
2019-02-25T21:57:48.519Z,89.20
2019-02-25T22:00:18.310Z,90.63
2019-02-25T22:02:50.268Z,86.37
2019-02-25T22:05:21.297Z,83.07
2019-02-25T22:07:54.368Z,86.80
2019-02-25T22:10:21.688Z,94.20
2019-02-25T22:12:51.168Z,91.37
2019-02-25T22:15:22.363Z,91.30
2019-02-25T22:17:53.368Z,94.50
2019-02-25T22:20:24.977Z,89.53
2019-02-25T22:22:56.737Z,86.33
2019-02-25T22:25:25.031Z,92.00
2019-02-25T22:27:54.729Z,90.40
2019-02-25T22:30:24.077Z,92.47
2019-02-25T22:32:53.493Z,94.87
2019-02-25T22:35:22.900Z,88.20
2019-02-25T22:37:53.260Z,94.23
2019-02-25T22:40:23.892Z,93.17
2019-02-25T22:42:54.955Z,93.83
2019-02-25T22:45:24.351Z,83.03
2019-02-25T22:47:53.910Z,90.50
2019-02-25T22:50:23.354Z,90.40
2019-02-25T22:52:58.304Z,90.97
2019-02-25T22:55:23.956Z,89.77
2019-02-25T22:57:54.145Z,87.17
2019-02-25T23:00:42.141Z,93.67
2019-02-25T23:03:15.090Z,85.67
2019-02-25T23:05:43.709Z,90.03
2019-02-25T23:08:15.581Z,84.10
2019-02-25T23:10:46.963Z,90.67
2019-02-25T23:13:19.850Z,87.07
2019-02-25T23:15:51.153Z,95.57
2019-02-25T23:18:24.481Z,88.03
2019-02-25T23:20:53.108Z,95.47
2019-02-25T23:23:25.449Z,90.17
2019-02-25T23:25:55.856Z,86.00
2019-02-25T23:28:26.143Z,92.73
2019-02-25T23:30:56.173Z,96.47
2019-02-25T23:33:25.698Z,98.40
2019-02-25T23:35:56.050Z,94.33
2019-02-25T23:38:25.554Z,101.13
2019-02-25T23:40:55.328Z,87.43
2019-02-25T23:43:25.250Z,91.53
2019-02-25T23:45:54.739Z,94.53
2019-02-25T23:48:26.400Z,98.20
2019-02-25T23:50:57.210Z,89.33
2019-02-25T23:53:28.319Z,89.37
2019-02-25T23:55:58.729Z,92.87
2019-02-25T23:58:28.262Z,91.80
